PWSweather.com
Personal Weather Stations
Station Observations
KTXNEWBR92
New Braunfels, TX

New Braunfels, TX

Lat: 29.722, Lon: -98.17

Elevation: 850

Station Type:

Latest ConditionsUpdated 7:16:00 AM CDT Thursday, Jul 18, 2019
Currently Today's Max Today's Min Today's Average
Temperature 77.0°F25.0°C 78.6°F25.9°C 75.7°F24.3°C 76.7°F24.8°C
Dew Point 70.0°F21.1°C 70.2°F21.2°C 65.8°F18.8°C 68.7°F20.4°C
Winds Calm Calm 7.2 mph -11.6 kmh - - 0.9 mph 1.4 kmh
Wind Gusts -- 9.8 mph15.8 kmh - -
Humidity 79% 81% 66% 76%
Pressure 29.84 in1010.5 mb 29.85 in1010.8 mb 29.82 in1009.8 mb -
Hour Temp Dew Point Humidity Winds Wind Gusts Pressure Precip Precip Rate Daily Precip Total
07:16 AM 77.0°F25.0°C 70.0°F21.1°C 79% Calm Calm -- 29.84 in1010.5 mb 0.00 in0.0 mm 0.00 in0.0 mm 0.00 in0.0 mm
07:14 AM 77.0°F25.0°C 70.0°F21.1°C 79% Calm Calm -- 29.84 in1010.5 mb 0.00 in0.0 mm 0.00 in0.0 mm 0.00 in0.0 mm
07:09 AM 77.0°F25.0°C 70.0°F21.1°C 79% 1.3 mph SE2.1 kmh SE 2.5 mph4.0 kmh 29.85 in1010.8 mb 0.00 in0.0 mm 0.00 in0.0 mm 0.00 in0.0 mm
07:04 AM 77.0°F25.0°C 70.0°F21.1°C 79% 2.7 mph SSE4.3 kmh SSE 4.9 mph7.9 kmh 29.84 in1010.5 mb 0.00 in0.0 mm 0.00 in0.0 mm 0.00 in0.0 mm
06:59 AM 77.0°F25.0°C 70.0°F21.1°C 79% 0.2 mph NE0.3 kmh NE 2.5 mph4.0 kmh 29.85 in1010.8 mb 0.00 in0.0 mm 0.00 in0.0 mm 0.00 in0.0 mm
06:54 AM 77.0°F25.0°C 70.0°F21.1°C 79% Calm Calm -- 29.84 in1010.5 mb 0.00 in0.0 mm 0.00 in0.0 mm 0.00 in0.0 mm
06:49 AM 77.0°F25.0°C 70.0°F21.1°C 79% Calm Calm -- 29.85 in1010.8 mb 0.00 in0.0 mm 0.00 in0.0 mm 0.00 in0.0 mm
06:44 AM 77.0°F25.0°C 70.0°F21.1°C 79% Calm Calm -- 29.84 in1010.5 mb 0.00 in0.0 mm 0.00 in0.0 mm 0.00 in0.0 mm
06:39 AM 77.0°F25.0°C 70.0°F21.1°C 79% Calm Calm -- 29.85 in1010.8 mb 0.00 in0.0 mm 0.00 in0.0 mm 0.00 in0.0 mm
06:34 AM 77.0°F25.0°C 70.0°F21.1°C 79% 2.0 mph SW3.2 kmh SW 2.5 mph4.0 kmh 29.85 in1010.8 mb 0.00 in0.0 mm 0.00 in0.0 mm 0.00 in0.0 mm
06:29 AM 77.0°F25.0°C 70.0°F21.1°C 79% Calm Calm -- 29.84 in1010.5 mb 0.00 in0.0 mm 0.00 in0.0 mm 0.00 in0.0 mm
06:24 AM 76.8°F24.9°C 69.8°F21.0°C 79% 0.4 mph NE0.6 kmh NE 2.5 mph4.0 kmh 29.84 in1010.5 mb 0.00 in0.0 mm 0.00 in0.0 mm 0.00 in0.0 mm
06:19 AM 76.8°F24.9°C 69.8°F21.0°C 79% Calm Calm -- 29.84 in1010.5 mb 0.00 in0.0 mm 0.00 in0.0 mm 0.00 in0.0 mm
06:14 AM 76.8°F24.9°C 69.8°F21.0°C 79% 0.2 mph E0.3 kmh E 2.5 mph4.0 kmh 29.84 in1010.5 mb 0.00 in0.0 mm 0.00 in0.0 mm 0.00 in0.0 mm
06:09 AM 76.8°F24.9°C 69.8°F21.0°C 79% 1.3 mph NE2.1 kmh NE 2.5 mph4.0 kmh 29.84 in1010.5 mb 0.00 in0.0 mm 0.00 in0.0 mm 0.00 in0.0 mm
06:04 AM 76.8°F24.9°C 69.8°F21.0°C 79% Calm Calm -- 29.84 in1010.5 mb 0.00 in0.0 mm 0.00 in0.0 mm 0.00 in0.0 mm
05:59 AM 76.8°F24.9°C 69.8°F21.0°C 79% 2.9 mph S4.7 kmh S 4.9 mph7.9 kmh 29.85 in1010.8 mb 0.00 in0.0 mm 0.00 in0.0 mm 0.00 in0.0 mm
05:54 AM 76.6°F24.8°C 69.6°F20.9°C 79% 4.5 mph WSW7.2 kmh WSW 7.4 mph11.9 kmh 29.84 in1010.5 mb 0.00 in0.0 mm 0.00 in0.0 mm 0.00 in0.0 mm
05:49 AM 76.6°F24.8°C 69.6°F20.9°C 79% 0.4 mph NE0.6 kmh NE 2.5 mph4.0 kmh 29.84 in1010.5 mb 0.00 in0.0 mm 0.00 in0.0 mm 0.00 in0.0 mm
05:44 AM 76.6°F24.8°C 69.6°F20.9°C 79% 1.8 mph S2.9 kmh S 2.5 mph4.0 kmh 29.84 in1010.5 mb 0.00 in0.0 mm 0.00 in0.0 mm 0.00 in0.0 mm
05:39 AM 76.6°F24.8°C 69.6°F20.9°C 79% Calm Calm -- 29.84 in1010.5 mb 0.00 in0.0 mm 0.00 in0.0 mm 0.00 in0.0 mm
05:34 AM 76.5°F24.7°C 69.4°F20.8°C 79% 0.2 mph ESE0.3 kmh ESE 2.5 mph4.0 kmh 29.84 in1010.5 mb 0.00 in0.0 mm 0.00 in0.0 mm 0.00 in0.0 mm
05:29 AM 76.5°F24.7°C 69.4°F20.8°C 79% 0.2 mph E0.3 kmh E 2.5 mph4.0 kmh 29.84 in1010.5 mb 0.00 in0.0 mm 0.00 in0.0 mm 0.00 in0.0 mm
05:24 AM 76.5°F24.7°C 69.8°F21.0°C 80% 7.2 mph S11.6 kmh S 9.8 mph15.8 kmh 29.84 in1010.5 mb 0.00 in0.0 mm 0.00 in0.0 mm 0.00 in0.0 mm
05:19 AM 76.5°F24.7°C 69.8°F21.0°C 80% 1.8 mph ESE2.9 kmh ESE 2.5 mph4.0 kmh 29.84 in1010.5 mb 0.00 in0.0 mm 0.00 in0.0 mm 0.00 in0.0 mm
05:14 AM 76.5°F24.7°C 69.8°F21.0°C 80% 1.1 mph E1.8 kmh E 2.5 mph4.0 kmh 29.83 in1010.2 mb 0.00 in0.0 mm 0.00 in0.0 mm 0.00 in0.0 mm
05:09 AM 76.5°F24.7°C 69.8°F21.0°C 80% 1.3 mph ESE2.1 kmh ESE 2.5 mph4.0 kmh 29.84 in1010.5 mb 0.00 in0.0 mm 0.00 in0.0 mm 0.00 in0.0 mm
05:04 AM 76.5°F24.7°C 69.8°F21.0°C 80% 0.2 mph E0.3 kmh E 2.5 mph4.0 kmh 29.84 in1010.5 mb 0.00 in0.0 mm 0.00 in0.0 mm 0.00 in0.0 mm
04:59 AM 76.5°F24.7°C 69.8°F21.0°C 80% 0.9 mph S1.4 kmh S 2.5 mph4.0 kmh 29.84 in1010.5 mb 0.00 in0.0 mm 0.00 in0.0 mm 0.00 in0.0 mm
04:54 AM 76.5°F24.7°C 69.8°F21.0°C 80% 0.4 mph ESE0.6 kmh ESE 2.5 mph4.0 kmh 29.84 in1010.5 mb 0.00 in0.0 mm 0.00 in0.0 mm 0.00 in0.0 mm
04:49 AM 76.5°F24.7°C 69.8°F21.0°C 80% 0.9 mph NE1.4 kmh NE 2.5 mph4.0 kmh 29.83 in1010.2 mb 0.00 in0.0 mm 0.00 in0.0 mm 0.00 in0.0 mm
04:44 AM 76.3°F24.6°C 69.6°F20.9°C 80% 0.4 mph ESE0.6 kmh ESE 2.5 mph4.0 kmh 29.84 in1010.5 mb 0.00 in0.0 mm 0.00 in0.0 mm 0.00 in0.0 mm
04:39 AM 76.3°F24.6°C 70.0°F21.1°C 81% Calm Calm -- 29.84 in1010.5 mb 0.00 in0.0 mm 0.00 in0.0 mm 0.00 in0.0 mm
04:34 AM 76.5°F24.7°C 70.2°F21.2°C 81% 3.4 mph ENE5.5 kmh ENE 4.9 mph7.9 kmh 29.84 in1010.5 mb 0.00 in0.0 mm 0.00 in0.0 mm 0.00 in0.0 mm
04:29 AM 76.5°F24.7°C 70.2°F21.2°C 81% 2.5 mph SSE4.0 kmh SSE 4.9 mph7.9 kmh 29.84 in1010.5 mb 0.00 in0.0 mm 0.00 in0.0 mm 0.00 in0.0 mm
04:24 AM 76.5°F24.7°C 70.2°F21.2°C 81% 2.0 mph S3.2 kmh S 2.5 mph4.0 kmh 29.84 in1010.5 mb 0.00 in0.0 mm 0.00 in0.0 mm 0.00 in0.0 mm
04:19 AM 76.5°F24.7°C 70.2°F21.2°C 81% 2.0 mph ESE3.2 kmh ESE 2.5 mph4.0 kmh 29.84 in1010.5 mb 0.00 in0.0 mm 0.00 in0.0 mm 0.00 in0.0 mm
04:14 AM 76.5°F24.7°C 70.2°F21.2°C 81% 5.1 mph S8.2 kmh S 7.4 mph11.9 kmh 29.84 in1010.5 mb 0.00 in0.0 mm 0.00 in0.0 mm 0.00 in0.0 mm
04:09 AM 76.5°F24.7°C 70.2°F21.2°C 81% 0.2 mph S0.3 kmh S 2.5 mph4.0 kmh 29.84 in1010.5 mb 0.00 in0.0 mm 0.00 in0.0 mm 0.00 in0.0 mm
04:04 AM 76.5°F24.7°C 70.2°F21.2°C 81% 2.9 mph SSW4.7 kmh SSW 4.9 mph7.9 kmh 29.84 in1010.5 mb 0.00 in0.0 mm 0.00 in0.0 mm 0.00 in0.0 mm
03:59 AM 76.5°F24.7°C 69.8°F21.0°C 80% 2.9 mph SSE4.7 kmh SSE 4.9 mph7.9 kmh 29.84 in1010.5 mb 0.00 in0.0 mm 0.00 in0.0 mm 0.00 in0.0 mm
03:54 AM 76.5°F24.7°C 69.8°F21.0°C 80% Calm Calm -- 29.84 in1010.5 mb 0.00 in0.0 mm 0.00 in0.0 mm 0.00 in0.0 mm
03:49 AM 76.5°F24.7°C 69.8°F21.0°C 80% 0.9 mph E1.4 kmh E 2.5 mph4.0 kmh 29.84 in1010.5 mb 0.00 in0.0 mm 0.00 in0.0 mm 0.00 in0.0 mm
03:44 AM 76.3°F24.6°C 69.6°F20.9°C 80% Calm Calm -- 29.84 in1010.5 mb 0.00 in0.0 mm 0.00 in0.0 mm 0.00 in0.0 mm
03:39 AM 76.3°F24.6°C 69.6°F20.9°C 80% Calm Calm -- 29.84 in1010.5 mb 0.00 in0.0 mm 0.00 in0.0 mm 0.00 in0.0 mm
03:34 AM 76.3°F24.6°C 69.6°F20.9°C 80% 0.2 mph ESE0.3 kmh ESE 2.5 mph4.0 kmh 29.84 in1010.5 mb 0.00 in0.0 mm 0.00 in0.0 mm 0.00 in0.0 mm
03:29 AM 76.3°F24.6°C 69.3°F20.7°C 79% 1.3 mph E2.1 kmh E 2.5 mph4.0 kmh 29.84 in1010.5 mb 0.00 in0.0 mm 0.00 in0.0 mm 0.00 in0.0 mm
03:24 AM 76.3°F24.6°C 69.3°F20.7°C 79% 1.3 mph E2.1 kmh E 2.5 mph4.0 kmh 29.83 in1010.2 mb 0.00 in0.0 mm 0.00 in0.0 mm 0.00 in0.0 mm
03:19 AM 76.3°F24.6°C 69.3°F20.7°C 79% 2.0 mph SE3.2 kmh SE 2.5 mph4.0 kmh 29.83 in1010.2 mb 0.00 in0.0 mm 0.00 in0.0 mm 0.00 in0.0 mm
03:14 AM 76.3°F24.6°C 68.9°F20.5°C 78% 1.1 mph SE1.8 kmh SE 2.5 mph4.0 kmh 29.83 in1010.2 mb 0.00 in0.0 mm 0.00 in0.0 mm 0.00 in0.0 mm
03:09 AM 76.3°F24.6°C 68.9°F20.5°C 78% 0.2 mph E0.3 kmh E 2.5 mph4.0 kmh 29.83 in1010.2 mb 0.00 in0.0 mm 0.00 in0.0 mm 0.00 in0.0 mm
03:04 AM 76.3°F24.6°C 68.9°F20.5°C 78% 2.9 mph WSW4.7 kmh WSW 4.9 mph7.9 kmh 29.82 in1009.8 mb 0.00 in0.0 mm 0.00 in0.0 mm 0.00 in0.0 mm
02:59 AM 76.3°F24.6°C 68.5°F20.3°C 77% 2.5 mph E4.0 kmh E 4.9 mph7.9 kmh 29.83 in1010.2 mb 0.00 in0.0 mm 0.00 in0.0 mm 0.00 in0.0 mm
02:54 AM 76.1°F24.5°C 68.4°F20.2°C 77% Calm Calm -- 29.83 in1010.2 mb 0.00 in0.0 mm 0.00 in0.0 mm 0.00 in0.0 mm
02:49 AM 76.1°F24.5°C 68.4°F20.2°C 77% 0.4 mph E0.6 kmh E 2.5 mph4.0 kmh 29.82 in1009.8 mb 0.00 in0.0 mm 0.00 in0.0 mm 0.00 in0.0 mm
02:44 AM 75.9°F24.4°C 68.2°F20.1°C 77% 0.4 mph S0.6 kmh S 2.5 mph4.0 kmh 29.83 in1010.2 mb 0.00 in0.0 mm 0.00 in0.0 mm 0.00 in0.0 mm
02:39 AM 75.9°F24.4°C 68.2°F20.1°C 77% 0.4 mph SSE0.6 kmh SSE 2.5 mph4.0 kmh 29.83 in1010.2 mb 0.00 in0.0 mm 0.00 in0.0 mm 0.00 in0.0 mm
02:34 AM 75.9°F24.4°C 68.2°F20.1°C 77% Calm Calm -- 29.83 in1010.2 mb 0.00 in0.0 mm 0.00 in0.0 mm 0.00 in0.0 mm
02:29 AM 75.7°F24.3°C 68.0°F20.0°C 77% Calm Calm -- 29.83 in1010.2 mb 0.00 in0.0 mm 0.00 in0.0 mm 0.00 in0.0 mm
02:24 AM 75.7°F24.3°C 68.0°F20.0°C 77% Calm Calm -- 29.83 in1010.2 mb 0.00 in0.0 mm 0.00 in0.0 mm 0.00 in0.0 mm
02:19 AM 75.7°F24.3°C 68.0°F20.0°C 77% Calm Calm -- 29.83 in1010.2 mb 0.00 in0.0 mm 0.00 in0.0 mm 0.00 in0.0 mm
02:14 AM 75.9°F24.4°C 67.8°F19.9°C 76% Calm Calm -- 29.83 in1010.2 mb 0.00 in0.0 mm 0.00 in0.0 mm 0.00 in0.0 mm
02:09 AM 75.9°F24.4°C 67.8°F19.9°C 76% Calm Calm -- 29.84 in1010.5 mb 0.00 in0.0 mm 0.00 in0.0 mm 0.00 in0.0 mm
02:04 AM 76.1°F24.5°C 68.0°F20.0°C 76% 0.4 mph E0.6 kmh E 2.5 mph4.0 kmh 29.84 in1010.5 mb 0.00 in0.0 mm 0.00 in0.0 mm 0.00 in0.0 mm
01:59 AM 76.1°F24.5°C 67.6°F19.8°C 75% 2.0 mph E3.2 kmh E 4.9 mph7.9 kmh 29.84 in1010.5 mb 0.00 in0.0 mm 0.00 in0.0 mm 0.00 in0.0 mm
01:54 AM 76.3°F24.6°C 67.8°F19.9°C 75% Calm Calm -- 29.84 in1010.5 mb 0.00 in0.0 mm 0.00 in0.0 mm 0.00 in0.0 mm
01:49 AM 76.5°F24.7°C 67.6°F19.8°C 74% 0.2 mph E0.3 kmh E 2.5 mph4.0 kmh 29.83 in1010.2 mb 0.00 in0.0 mm 0.00 in0.0 mm 0.00 in0.0 mm
01:44 AM 76.5°F24.7°C 67.3°F19.6°C 73% 0.4 mph E0.6 kmh E 2.5 mph4.0 kmh 29.84 in1010.5 mb 0.00 in0.0 mm 0.00 in0.0 mm 0.00 in0.0 mm
01:39 AM 76.6°F24.8°C 67.5°F19.7°C 73% Calm Calm -- 29.84 in1010.5 mb 0.00 in0.0 mm 0.00 in0.0 mm 0.00 in0.0 mm
01:34 AM 76.6°F24.8°C 66.9°F19.4°C 72% Calm Calm -- 29.83 in1010.2 mb 0.00 in0.0 mm 0.00 in0.0 mm 0.00 in0.0 mm
01:29 AM 76.8°F24.9°C 67.1°F19.5°C 72% Calm Calm -- 29.84 in1010.5 mb 0.00 in0.0 mm 0.00 in0.0 mm 0.00 in0.0 mm
01:24 AM 77.0°F25.0°C 66.9°F19.4°C 71% Calm Calm -- 29.84 in1010.5 mb 0.00 in0.0 mm 0.00 in0.0 mm 0.00 in0.0 mm
01:19 AM 77.0°F25.0°C 66.9°F19.4°C 71% Calm Calm -- 29.84 in1010.5 mb 0.00 in0.0 mm 0.00 in0.0 mm 0.00 in0.0 mm
01:14 AM 77.2°F25.1°C 66.7°F19.3°C 70% Calm Calm -- 29.84 in1010.5 mb 0.00 in0.0 mm 0.00 in0.0 mm 0.00 in0.0 mm
01:09 AM 77.2°F25.1°C 66.7°F19.3°C 70% 0.2 mph SE0.3 kmh SE 2.5 mph4.0 kmh 29.84 in1010.5 mb 0.00 in0.0 mm 0.00 in0.0 mm 0.00 in0.0 mm
01:04 AM 77.4°F25.2°C 66.4°F19.1°C 69% 0.2 mph E0.3 kmh E 2.5 mph4.0 kmh 29.84 in1010.5 mb 0.00 in0.0 mm 0.00 in0.0 mm 0.00 in0.0 mm
12:59 AM 77.4°F25.2°C 66.4°F19.1°C 69% 1.8 mph SE2.9 kmh SE 2.5 mph4.0 kmh 29.83 in1010.2 mb 0.00 in0.0 mm 0.00 in0.0 mm 0.00 in0.0 mm
12:54 AM 77.5°F25.3°C 66.6°F19.2°C 69% Calm Calm -- 29.84 in1010.5 mb 0.00 in0.0 mm 0.00 in0.0 mm 0.00 in0.0 mm
12:49 AM 77.5°F25.3°C 66.2°F19.0°C 68% Calm Calm -- 29.84 in1010.5 mb 0.00 in0.0 mm 0.00 in0.0 mm 0.00 in0.0 mm
12:44 AM 77.7°F25.4°C 66.4°F19.1°C 68% Calm Calm -- 29.84 in1010.5 mb 0.00 in0.0 mm 0.00 in0.0 mm 0.00 in0.0 mm
12:39 AM 77.7°F25.4°C 66.4°F19.1°C 68% Calm Calm -- 29.83 in1010.2 mb 0.00 in0.0 mm 0.00 in0.0 mm 0.00 in0.0 mm
12:34 AM 77.9°F25.5°C 66.2°F19.0°C 67% Calm Calm -- 29.83 in1010.2 mb 0.00 in0.0 mm 0.00 in0.0 mm 0.00 in0.0 mm
12:29 AM 77.9°F25.5°C 66.2°F19.0°C 67% 2.5 mph E4.0 kmh E 4.9 mph7.9 kmh 29.83 in1010.2 mb 0.00 in0.0 mm 0.00 in0.0 mm 0.00 in0.0 mm
12:24 AM 78.1°F25.6°C 65.8°F18.8°C 66% Calm Calm -- 29.84 in1010.5 mb 0.00 in0.0 mm 0.00 in0.0 mm 0.00 in0.0 mm
12:19 AM 78.1°F25.6°C 66.2°F19.0°C 67% 0.9 mph ENE1.4 kmh ENE 2.5 mph4.0 kmh 29.83 in1010.2 mb 0.00 in0.0 mm 0.00 in0.0 mm 0.00 in0.0 mm
12:14 AM 78.3°F25.7°C 66.0°F18.9°C 66% Calm Calm -- 29.83 in1010.2 mb 0.00 in0.0 mm 0.00 in0.0 mm 0.00 in0.0 mm
12:09 AM 78.4°F25.8°C 66.2°F19.0°C 66% Calm Calm -- 29.83 in1010.2 mb 0.00 in0.0 mm 0.00 in0.0 mm 0.00 in0.0 mm
12:04 AM 78.6°F25.9°C 66.4°F19.1°C 66% Calm Calm -- 29.83 in1010.2 mb 0.00 in0.0 mm 0.00 in0.0 mm 0.00 in0.0 mm